Terminal Aerodrome Forecast
Issued by NWS

Home | Current Version | Previous Version | Text Only | Print | Product List | Glossary On
Versions: 1 2 3 4 5 6 7 8 9 10 11 12 13 14 15 16 17 18 19 20
000
FTUS42 KTBW 191742
TAFPGD
TAF
KPGD 191742Z 1918/2018 20014G22KT P6SM FEW050 BKN250
     FM192000 23014G22KT P6SM FEW050 BKN250
     FM200000 23005KT P6SM BKN250
     FM200300 18004KT P6SM BKN250
      TEMPO 2008/2012 5SM BR SCT005
     FM201400 21008KT P6SM VCSH SCT020 BKN080=

USA.gov is the U.S. government's official web portal to all federal, state and local government web resources and services.